createdAt,value
2023-02-02T00:01:50.387Z,6.50
2023-02-02T00:04:26.204Z,6.20
2023-02-02T00:06:54.985Z,6.97
2023-02-02T00:09:23.417Z,6.68
2023-02-02T00:11:51.331Z,6.07
2023-02-02T00:14:19.179Z,6.10
2023-02-02T00:16:52.263Z,6.05
2023-02-02T00:19:23.093Z,5.80
2023-02-02T00:21:51.394Z,5.63
2023-02-02T00:24:19.972Z,5.55
2023-02-02T00:26:51.062Z,5.65
2023-02-02T00:29:31.808Z,5.70
2023-02-02T00:31:59.568Z,5.63
2023-02-02T00:34:28.375Z,5.82
2023-02-02T00:36:56.291Z,5.90
2023-02-02T00:39:28.847Z,5.57
2023-02-02T00:41:57.029Z,6.10
2023-02-02T00:44:43.451Z,6.15
2023-02-02T00:47:11.687Z,8.60
2023-02-02T00:49:39.720Z,8.85
2023-02-02T00:52:07.864Z,8.43
2023-02-02T00:54:36.312Z,7.80
2023-02-02T00:57:04.238Z,7.47
2023-02-02T00:59:32.555Z,6.75
2023-02-02T01:02:02.386Z,6.68
2023-02-02T01:04:31.543Z,6.28
2023-02-02T01:06:59.263Z,6.38
2023-02-02T01:09:27.360Z,6.38
2023-02-02T01:11:55.189Z,6.40
2023-02-02T01:14:23.266Z,5.97
2023-02-02T01:16:52.098Z,5.65
2023-02-02T01:19:20.282Z,5.30
2023-02-02T01:21:48.173Z,5.95
2023-02-02T01:24:16.062Z,5.97
2023-02-02T01:26:43.849Z,5.65
2023-02-02T01:29:12.379Z,6.10
2023-02-02T01:31:40.931Z,5.85
2023-02-02T01:34:09.410Z,5.68
2023-02-02T01:36:37.650Z,5.35
2023-02-02T01:39:05.505Z,5.10
2023-02-02T01:41:33.625Z,6.53
2023-02-02T01:44:05.656Z,6.25
2023-02-02T01:46:36.095Z,5.55
2023-02-02T01:49:22.407Z,5.93
2023-02-02T01:51:58.254Z,5.97
2023-02-02T01:54:36.556Z,6.38
2023-02-02T01:57:10.155Z,6.80
2023-02-02T01:59:38.811Z,6.82
2023-02-02T02:02:07.245Z,7.25
2023-02-02T02:04:35.829Z,6.35
2023-02-02T02:07:05.887Z,6.05
2023-02-02T02:09:34.894Z,5.90
2023-02-02T02:12:02.928Z,6.25
2023-02-02T02:14:49.191Z,6.20
2023-02-02T02:17:49.560Z,6.38
2023-02-02T02:21:10.117Z,6.28
2023-02-02T02:24:15.327Z,5.70
2023-02-02T02:27:07.955Z,6.20
2023-02-02T02:29:52.112Z,5.90
2023-02-02T02:32:40.431Z,5.68
2023-02-02T02:35:27.416Z,5.97
2023-02-02T02:38:06.563Z,5.63
2023-02-02T02:40:51.922Z,5.50
2023-02-02T02:43:35.359Z,5.65
2023-02-02T02:46:04.338Z,6.53
2023-02-02T02:48:33.388Z,5.55
2023-02-02T02:51:29.534Z,5.63
2023-02-02T02:53:57.562Z,5.25
2023-02-02T02:56:38.586Z,4.90
2023-02-02T02:59:21.682Z,5.40
2023-02-02T03:02:04.838Z,5.70
2023-02-02T03:04:57.526Z,5.50
2023-02-02T03:07:51.880Z,5.38
2023-02-02T03:10:26.620Z,4.45
2023-02-02T03:12:55.703Z,5.22
2023-02-02T03:15:25.620Z,5.63
2023-02-02T03:17:54.253Z,5.28
2023-02-02T03:20:22.306Z,5.50
2023-02-02T03:22:50.387Z,5.97
2023-02-02T03:25:18.034Z,5.30
2023-02-02T03:27:45.902Z,5.85
2023-02-02T03:30:16.202Z,5.80
2023-02-02T03:32:45.446Z,5.97
2023-02-02T03:35:13.165Z,5.82
2023-02-02T03:37:41.054Z,6.20
2023-02-02T03:40:09.670Z,5.82
2023-02-02T03:42:37.379Z,5.88
2023-02-02T03:45:07.038Z,6.30
2023-02-02T03:47:37.894Z,5.53
2023-02-02T03:50:09.940Z,5.45
2023-02-02T03:52:38.032Z,5.68
2023-02-02T03:55:06.748Z,5.78
2023-02-02T03:57:36.138Z,5.20
2023-02-02T04:00:06.125Z,5.03
2023-02-02T04:02:43.412Z,5.90
2023-02-02T04:05:11.051Z,5.78
2023-02-02T04:07:38.917Z,4.97
2023-02-02T04:10:07.211Z,4.90
2023-02-02T04:12:36.339Z,5.60
2023-02-02T04:15:04.502Z,5.40
2023-02-02T04:17:32.444Z,5.30
2023-02-02T04:20:00.179Z,4.97
2023-02-02T04:22:27.983Z,5.47
2023-02-02T04:24:55.789Z,5.55
2023-02-02T04:27:23.593Z,5.32
2023-02-02T04:29:51.389Z,5.10
2023-02-02T04:32:19.158Z,5.32
2023-02-02T04:34:48.293Z,5.50
2023-02-02T04:37:15.956Z,5.35
2023-02-02T04:39:43.799Z,4.95
2023-02-02T04:42:11.550Z,5.40
2023-02-02T04:44:39.883Z,5.13
2023-02-02T04:47:07.674Z,5.72
2023-02-02T04:49:41.058Z,5.55
2023-02-02T04:52:11.105Z,5.40
2023-02-02T04:54:39.256Z,5.10
2023-02-02T04:57:07.038Z,4.93
2023-02-02T04:59:34.849Z,5.20
2023-02-02T05:02:02.940Z,4.75
2023-02-02T05:04:30.797Z,5.28
2023-02-02T05:06:58.530Z,5.10
2023-02-02T05:09:26.690Z,4.10
2023-02-02T05:11:54.527Z,5.07
2023-02-02T05:14:22.436Z,5.00
2023-02-02T05:16:51.071Z,5.10
2023-02-02T05:19:18.807Z,4.47
2023-02-02T05:21:50.653Z,5.10
2023-02-02T05:24:18.831Z,4.85
2023-02-02T05:26:47.226Z,4.65
2023-02-02T05:29:15.311Z,5.03
2023-02-02T05:31:42.985Z,4.97
2023-02-02T05:34:11.825Z,5.28
2023-02-02T05:36:39.658Z,5.95
2023-02-02T05:39:07.483Z,5.68
2023-02-02T05:41:35.555Z,6.00
2023-02-02T05:44:04.700Z,7.10
2023-02-02T05:46:32.523Z,7.18
2023-02-02T05:49:00.429Z,7.80
2023-02-02T05:51:32.126Z,8.82
2023-02-02T05:54:01.094Z,7.72
2023-02-02T05:56:28.945Z,6.88
2023-02-02T05:58:56.815Z,6.75
2023-02-02T06:01:24.709Z,6.72
2023-02-02T06:03:52.587Z,7.13
2023-02-02T06:06:20.572Z,7.85
2023-02-02T06:08:48.394Z,8.38
2023-02-02T06:11:18.981Z,8.32
2023-02-02T06:13:47.035Z,7.20
2023-02-02T06:16:15.062Z,7.80
2023-02-02T06:18:43.114Z,7.68
2023-02-02T06:21:11.860Z,6.85
2023-02-02T06:23:45.711Z,7.53
2023-02-02T06:26:14.454Z,8.15
2023-02-02T06:28:43.483Z,7.60
2023-02-02T06:31:12.103Z,7.78
2023-02-02T06:33:40.290Z,7.07
2023-02-02T06:36:08.164Z,7.88
2023-02-02T06:38:36.051Z,8.65
2023-02-02T06:41:07.176Z,8.43
2023-02-02T06:43:35.063Z,8.38
2023-02-02T06:46:03.022Z,8.38
2023-02-02T06:48:31.940Z,7.82
2023-02-02T06:51:00.434Z,8.52
2023-02-02T06:53:28.298Z,8.23
2023-02-02T06:55:57.699Z,9.00
2023-02-02T06:58:27.914Z,7.70
2023-02-02T07:00:56.121Z,12.10
2023-02-02T07:03:23.939Z,11.80
2023-02-02T07:05:51.669Z,12.20
2023-02-02T07:08:19.891Z,11.93
2023-02-02T07:11:13.924Z,10.73
2023-02-02T07:16:05.076Z,9.57
2023-02-02T07:18:32.841Z,11.15
2023-02-02T07:21:01.663Z,9.77
2023-02-02T07:23:31.076Z,9.40
2023-02-02T07:26:08.004Z,9.20
2023-02-02T07:28:36.531Z,9.77
2023-02-02T07:31:17.877Z,8.82
2023-02-02T07:33:46.867Z,9.23
2023-02-02T07:36:17.204Z,8.93
2023-02-02T07:38:47.543Z,9.68
2023-02-02T07:41:16.052Z,8.65
2023-02-02T07:43:47.784Z,9.30
2023-02-02T07:46:17.550Z,9.20
2023-02-02T07:48:45.636Z,8.30
2023-02-02T07:51:18.509Z,8.35
2023-02-02T07:53:48.856Z,7.85
2023-02-02T07:56:22.314Z,7.68
2023-02-02T07:58:53.519Z,7.57
2023-02-02T08:01:23.283Z,7.60
2023-02-02T08:03:51.784Z,8.10
2023-02-02T08:06:28.530Z,8.35
2023-02-02T08:08:56.453Z,7.80
2023-02-02T08:11:26.171Z,8.38
2023-02-02T08:13:58.473Z,8.10
2023-02-02T08:16:30.299Z,7.55
2023-02-02T08:18:58.699Z,7.90
2023-02-02T08:21:27.066Z,8.02
2023-02-02T08:23:55.320Z,7.30
2023-02-02T08:26:28.255Z,7.47
2023-02-02T08:29:01.593Z,7.53
2023-02-02T08:31:36.256Z,6.85
2023-02-02T08:34:05.280Z,6.65
2023-02-02T08:36:35.630Z,7.30
2023-02-02T08:39:10.735Z,7.05
2023-02-02T08:41:39.046Z,7.03
2023-02-02T08:44:13.234Z,6.97
2023-02-02T08:46:42.299Z,7.80
2023-02-02T08:49:13.900Z,8.30
2023-02-02T08:51:42.175Z,8.10
2023-02-02T08:54:10.393Z,8.43
2023-02-02T08:56:39.139Z,8.85
2023-02-02T08:59:07.933Z,8.25
2023-02-02T09:01:36.199Z,7.25
2023-02-02T09:04:07.625Z,7.50
2023-02-02T09:06:38.150Z,8.82
2023-02-02T09:09:08.182Z,8.13
2023-02-02T09:11:36.335Z,8.00
2023-02-02T09:14:06.733Z,8.15
2023-02-02T09:16:36.138Z,8.23
2023-02-02T09:19:05.279Z,8.40
2023-02-02T09:21:37.394Z,7.80
2023-02-02T09:24:10.477Z,7.07
2023-02-02T09:26:40.768Z,7.30
2023-02-02T09:29:13.295Z,7.13
2023-02-02T09:31:41.871Z,7.15
2023-02-02T09:34:13.464Z,6.70
2023-02-02T09:36:42.633Z,6.78
2023-02-02T09:39:15.326Z,6.22
2023-02-02T09:42:05.016Z,5.97
2023-02-02T09:45:00.205Z,6.60
2023-02-02T09:47:55.549Z,6.47
2023-02-02T09:50:35.726Z,6.28
2023-02-02T09:53:14.844Z,6.30
2023-02-02T09:55:46.711Z,5.80
2023-02-02T09:58:19.242Z,6.15
2023-02-02T10:01:13.885Z,7.28
2023-02-02T10:04:05.669Z,6.57
2023-02-02T10:06:42.591Z,8.02
2023-02-02T10:09:35.229Z,7.00
2023-02-02T10:12:21.943Z,6.28
2023-02-02T10:14:59.226Z,5.55
2023-02-02T10:17:43.918Z,5.85
2023-02-02T10:20:30.894Z,5.93
2023-02-02T10:23:06.956Z,6.00
2023-02-02T10:25:35.908Z,6.25
2023-02-02T10:28:11.505Z,5.65
2023-02-02T10:30:46.063Z,5.85
2023-02-02T10:33:39.057Z,5.80
2023-02-02T10:36:07.667Z,7.18
2023-02-02T10:38:53.373Z,8.15
2023-02-02T10:41:30.505Z,10.18
2023-02-02T10:44:23.695Z,9.75
2023-02-02T10:46:55.872Z,8.70
2023-02-02T10:49:32.660Z,7.35
2023-02-02T10:52:31.510Z,6.60
2023-02-02T10:55:04.565Z,5.85
2023-02-02T10:57:58.175Z,5.85
2023-02-02T11:00:42.424Z,6.60
2023-02-02T11:03:13.560Z,8.50
2023-02-02T11:06:00.409Z,7.47
2023-02-02T11:08:36.624Z,7.25
2023-02-02T11:11:20.278Z,8.90
2023-02-02T11:13:48.347Z,7.57
2023-02-02T11:16:16.036Z,6.28
2023-02-02T11:18:46.100Z,6.22
2023-02-02T11:21:32.753Z,6.22
2023-02-02T11:24:06.854Z,5.80
2023-02-02T11:27:27.216Z,6.38
2023-02-02T11:29:59.324Z,5.32
2023-02-02T11:32:30.905Z,5.78
2023-02-02T11:35:04.891Z,6.22
2023-02-02T11:37:35.359Z,7.00
2023-02-02T11:40:22.791Z,8.15
2023-02-02T11:42:52.865Z,7.30
2023-02-02T11:45:35.722Z,7.15
2023-02-02T11:48:16.840Z,6.60
2023-02-02T11:50:53.997Z,7.03
2023-02-02T11:55:54.375Z,7.38
2023-02-02T11:58:30.656Z,7.60
2023-02-02T12:01:01.891Z,8.98
2023-02-02T12:03:31.817Z,9.63
2023-02-02T12:06:04.890Z,10.90
2023-02-02T12:08:32.770Z,10.45
2023-02-02T12:11:03.607Z,9.93
2023-02-02T12:13:57.734Z,9.38
2023-02-02T12:16:34.371Z,9.15
2023-02-02T12:19:21.033Z,9.85
2023-02-02T12:21:58.813Z,9.40
2023-02-02T12:24:44.312Z,8.98
2023-02-02T12:27:39.943Z,8.00
2023-02-02T12:30:41.197Z,7.93
2023-02-02T12:33:44.328Z,7.70
2023-02-02T12:36:33.944Z,6.68
2023-02-02T12:39:09.111Z,7.40
2023-02-02T12:42:07.765Z,6.95
2023-02-02T12:45:10.937Z,8.25
2023-02-02T12:48:02.312Z,7.30
2023-02-02T12:50:54.714Z,7.85
2023-02-02T12:54:34.185Z,7.18
2023-02-02T12:57:01.046Z,7.82
2023-02-02T12:59:42.206Z,6.97
2023-02-02T13:02:18.928Z,7.63
2023-02-02T13:07:57.076Z,7.55
2023-02-02T13:10:32.553Z,7.70
2023-02-02T13:13:29.338Z,8.27
2023-02-02T13:16:08.113Z,7.78
2023-02-02T13:18:52.090Z,8.25
2023-02-02T13:21:24.003Z,10.35
2023-02-02T13:23:56.452Z,12.18
2023-02-02T13:26:35.670Z,14.45
2023-02-02T13:29:09.517Z,17.85
2023-02-02T13:31:47.049Z,17.77
2023-02-02T13:34:30.580Z,16.60
2023-02-02T13:37:20.213Z,14.57
2023-02-02T13:39:55.306Z,14.15
2023-02-02T13:42:40.712Z,13.75
2023-02-02T13:45:25.166Z,13.13
2023-02-02T13:48:00.562Z,12.35
2023-02-02T13:50:31.092Z,12.50
2023-02-02T13:53:17.392Z,11.30
2023-02-02T13:56:08.387Z,11.52
2023-02-02T13:59:01.582Z,11.38
2023-02-02T14:01:32.437Z,10.80
2023-02-02T14:04:01.073Z,11.35
2023-02-02T14:06:31.044Z,11.50
2023-02-02T14:09:05.686Z,10.38
2023-02-02T14:11:43.198Z,11.02
2023-02-02T14:14:32.305Z,10.55
2023-02-02T14:17:01.167Z,11.65
2023-02-02T14:19:30.587Z,11.85
2023-02-02T14:21:59.925Z,11.40
2023-02-02T14:24:27.632Z,10.95
2023-02-02T14:26:58.571Z,10.70
2023-02-02T14:29:33.030Z,12.10
2023-02-02T14:32:15.801Z,14.05
2023-02-02T14:34:45.005Z,13.77
2023-02-02T14:37:37.759Z,14.77
2023-02-02T14:40:06.722Z,13.15
2023-02-02T14:42:55.743Z,12.63
2023-02-02T14:45:27.189Z,13.88
2023-02-02T14:48:02.589Z,11.50
2023-02-02T14:50:57.923Z,12.48
2023-02-02T14:53:33.819Z,11.88
2023-02-02T14:56:18.553Z,13.45
2023-02-02T14:59:00.212Z,13.63
2023-02-02T15:01:37.643Z,12.50
2023-02-02T15:04:18.532Z,12.60
2023-02-02T15:06:47.248Z,11.60
2023-02-02T15:09:22.475Z,12.90
2023-02-02T15:12:01.201Z,11.23
2023-02-02T15:14:53.299Z,10.48
2023-02-02T15:17:30.269Z,10.82
2023-02-02T15:20:20.904Z,10.95
2023-02-02T15:22:48.688Z,10.82
2023-02-02T15:25:54.276Z,11.95
2023-02-02T15:28:25.553Z,16.60
2023-02-02T15:30:58.699Z,16.52
2023-02-02T15:33:44.015Z,14.65
2023-02-02T15:36:16.875Z,13.30
2023-02-02T15:38:46.714Z,13.57
2023-02-02T15:41:27.969Z,12.30
2023-02-02T15:43:55.699Z,11.85
2023-02-02T15:46:32.520Z,10.20
2023-02-02T15:49:33.205Z,10.80
2023-02-02T15:52:11.080Z,10.32
2023-02-02T15:54:38.848Z,11.30
2023-02-02T15:57:32.983Z,9.60
2023-02-02T16:00:21.528Z,9.88
2023-02-02T16:03:01.511Z,9.48
2023-02-02T16:05:32.237Z,9.23
2023-02-02T16:08:05.921Z,9.95
2023-02-02T16:10:35.462Z,9.10
2023-02-02T16:13:03.827Z,10.00
2023-02-02T16:15:33.029Z,9.85
2023-02-02T16:18:15.518Z,9.52
2023-02-02T16:20:44.856Z,9.75
2023-02-02T16:23:16.075Z,10.93
2023-02-02T16:25:51.621Z,11.13
2023-02-02T16:28:22.328Z,10.77
2023-02-02T16:30:51.898Z,10.32
2023-02-02T16:33:36.833Z,10.38
2023-02-02T16:36:29.794Z,10.77
2023-02-02T16:39:01.110Z,11.32
2023-02-02T16:41:34.788Z,10.32
2023-02-02T16:44:39.909Z,10.85
2023-02-02T16:47:30.481Z,10.90
2023-02-02T16:50:11.474Z,11.32
2023-02-02T16:52:54.101Z,11.80
2023-02-02T16:55:23.839Z,11.05
2023-02-02T16:57:52.479Z,11.95
2023-02-02T17:00:27.068Z,10.98
2023-02-02T17:03:10.339Z,10.98
2023-02-02T17:05:54.222Z,12.77
2023-02-02T17:08:31.554Z,11.73
2023-02-02T17:13:32.433Z,11.52
2023-02-02T17:16:00.853Z,11.48
2023-02-02T17:18:28.725Z,10.90
2023-02-02T17:20:58.427Z,10.30
2023-02-02T17:23:28.769Z,10.27
2023-02-02T17:25:57.096Z,11.18
2023-02-02T17:28:26.710Z,10.88
2023-02-02T17:31:04.036Z,14.85
2023-02-02T17:33:35.428Z,13.55
2023-02-02T17:36:04.823Z,12.45
2023-02-02T17:38:33.147Z,11.82
2023-02-02T17:41:02.660Z,10.63
2023-02-02T17:43:33.043Z,10.77
2023-02-02T17:46:00.819Z,12.02
2023-02-02T17:48:28.797Z,11.13
2023-02-02T17:50:56.575Z,10.38
2023-02-02T17:53:24.382Z,10.05
2023-02-02T17:55:52.516Z,9.20
2023-02-02T17:58:20.520Z,10.05
2023-02-02T18:00:54.058Z,8.90
2023-02-02T18:03:33.724Z,8.30
2023-02-02T18:06:03.094Z,8.60
2023-02-02T18:08:33.171Z,8.32
2023-02-02T18:11:01.654Z,9.95
2023-02-02T18:13:29.365Z,9.80
2023-02-02T18:15:59.981Z,8.35
2023-02-02T18:18:29.847Z,9.40
2023-02-02T18:20:59.115Z,9.32
2023-02-02T18:23:27.057Z,8.85
2023-02-02T18:25:54.880Z,8.98
2023-02-02T18:28:22.637Z,10.23
2023-02-02T18:30:50.448Z,11.13
2023-02-02T18:33:20.171Z,10.07
2023-02-02T18:35:48.473Z,10.25
2023-02-02T18:38:16.398Z,10.82
2023-02-02T18:40:44.246Z,9.70
2023-02-02T18:43:12.186Z,9.65
2023-02-02T18:45:39.836Z,10.52
2023-02-02T18:48:07.645Z,10.10
2023-02-02T18:50:36.182Z,9.93
2023-02-02T18:53:04.157Z,9.95
2023-02-02T18:55:32.181Z,9.70
2023-02-02T18:58:01.317Z,9.68
2023-02-02T19:00:29.274Z,9.82
2023-02-02T19:02:57.069Z,9.57
2023-02-02T19:05:44.170Z,11.30
2023-02-02T19:08:12.499Z,12.98
2023-02-02T19:10:40.313Z,18.02
2023-02-02T19:13:19.846Z,18.10
2023-02-02T19:15:49.495Z,15.10
2023-02-02T19:18:21.594Z,13.43
2023-02-02T19:20:50.852Z,12.30
2023-02-02T19:23:24.365Z,11.70
2023-02-02T19:25:56.474Z,11.05
2023-02-02T19:28:29.110Z,14.75
2023-02-02T19:30:59.698Z,16.75
2023-02-02T19:33:48.031Z,17.60
2023-02-02T19:36:21.313Z,17.80
2023-02-02T19:38:52.471Z,20.52
2023-02-02T19:41:24.366Z,19.67
2023-02-02T19:43:58.455Z,18.70
2023-02-02T19:46:28.047Z,17.38
2023-02-02T19:49:28.595Z,16.40
2023-02-02T19:51:58.505Z,14.63
2023-02-02T19:54:41.246Z,16.13
2023-02-02T19:57:21.956Z,17.02
2023-02-02T19:59:52.811Z,13.55
2023-02-02T20:02:43.774Z,12.20
2023-02-02T20:05:11.744Z,12.55
2023-02-02T20:07:40.788Z,13.00
2023-02-02T20:10:23.990Z,12.60
2023-02-02T20:12:55.644Z,13.52
2023-02-02T20:15:34.221Z,12.35
2023-02-02T20:18:12.801Z,11.93
2023-02-02T20:20:44.167Z,12.15
2023-02-02T20:23:44.438Z,12.07
2023-02-02T20:26:14.525Z,13.13
2023-02-02T20:28:45.468Z,15.13
2023-02-02T20:31:17.996Z,16.50
2023-02-02T20:33:52.219Z,14.82
2023-02-02T20:36:42.607Z,13.75
2023-02-02T20:39:36.869Z,12.85
2023-02-02T20:42:04.982Z,12.23
2023-02-02T20:44:35.740Z,11.70
2023-02-02T20:47:05.145Z,12.40
2023-02-02T20:49:33.182Z,12.77
2023-02-02T20:52:05.031Z,12.98
2023-02-02T20:54:34.406Z,12.93
2023-02-02T20:57:05.848Z,12.25
2023-02-02T20:59:33.683Z,13.45
2023-02-02T21:02:02.171Z,12.82
2023-02-02T21:04:31.672Z,12.35
2023-02-02T21:07:00.182Z,11.85
2023-02-02T21:09:27.948Z,11.32
2023-02-02T21:11:56.180Z,11.75
2023-02-02T21:14:23.936Z,12.55
2023-02-02T21:16:57.273Z,10.98
2023-02-02T21:19:29.992Z,11.35
2023-02-02T21:21:57.791Z,13.48
2023-02-02T21:24:25.793Z,19.98
2023-02-02T21:26:54.107Z,17.88
2023-02-02T21:29:23.894Z,16.67
2023-02-02T21:31:52.582Z,15.68
2023-02-02T21:34:21.326Z,16.83
2023-02-02T21:36:50.900Z,16.63
2023-02-02T21:39:36.032Z,14.88
2023-02-02T21:42:22.554Z,15.43
2023-02-02T21:44:57.258Z,13.73
2023-02-02T21:47:38.453Z,12.85
2023-02-02T21:50:24.658Z,12.77
2023-02-02T21:53:25.760Z,12.40
2023-02-02T21:55:59.986Z,11.73
2023-02-02T21:58:40.404Z,13.10
2023-02-02T22:01:24.659Z,11.77
2023-02-02T22:03:52.801Z,12.73
2023-02-02T22:06:43.093Z,11.77
2023-02-02T22:09:13.890Z,11.18
2023-02-02T22:11:59.362Z,10.50
2023-02-02T22:14:39.111Z,12.98
2023-02-02T22:17:22.550Z,12.75
2023-02-02T22:19:55.166Z,12.00
2023-02-02T22:22:25.889Z,11.65
2023-02-02T22:25:03.993Z,12.18
2023-02-02T22:27:42.271Z,11.43
2023-02-02T22:30:26.053Z,12.05
2023-02-02T22:32:55.949Z,12.38
2023-02-02T22:35:25.144Z,12.80
2023-02-02T22:37:53.355Z,12.77
2023-02-02T22:40:22.854Z,13.13
2023-02-02T22:42:51.980Z,12.75
2023-02-02T22:45:20.054Z,12.27
2023-02-02T22:47:48.537Z,14.05
2023-02-02T22:50:22.437Z,11.93
2023-02-02T22:52:50.994Z,13.23
2023-02-02T22:55:20.197Z,11.90
2023-02-02T22:57:48.194Z,11.80
2023-02-02T23:00:21.274Z,10.27
2023-02-02T23:02:49.490Z,10.20
2023-02-02T23:05:21.743Z,10.25
2023-02-02T23:07:49.940Z,10.60
2023-02-02T23:10:20.313Z,9.68
2023-02-02T23:12:48.573Z,10.68
2023-02-02T23:15:16.431Z,9.38
2023-02-02T23:17:46.318Z,10.13
2023-02-02T23:20:16.023Z,9.43
2023-02-02T23:22:44.098Z,9.88
2023-02-02T23:25:13.971Z,9.38
2023-02-02T23:27:42.192Z,9.50
2023-02-02T23:30:11.747Z,10.25
2023-02-02T23:32:40.175Z,9.90
2023-02-02T23:35:10.408Z,11.30
2023-02-02T23:37:38.711Z,11.20
2023-02-02T23:40:11.273Z,9.90
2023-02-02T23:42:39.166Z,10.23
2023-02-02T23:45:07.298Z,11.05
2023-02-02T23:47:35.413Z,10.82
2023-02-02T23:50:06.960Z,11.02
2023-02-02T23:52:36.037Z,12.25
2023-02-02T23:55:04.938Z,10.25
2023-02-02T23:57:33.940Z,10.65
